Lybster, United Kingdom
Current Conditions -  °F | °C
As of 11:50 PM on Thursday 18 Dec 2014 (Local Time) from EGPC Reporting Station
Light Rain Light Rain  
Wind Chill: 26°   Ceiling: Unl
Heat Index: 36°   Visibility: 6mi
Dew Point: 32°   Wind: 15mph
Humidity: 87%   Direction: 250°WSW
Pressure: 29.23"   Gusts: NA
Location:  58.3°N, 3.28°W
Report Text: EGPC 182350Z AUTO 25013KT 9999 -RA SCT012/// 02/M00 Q0990
Loading
Personal Weather Stations






























Interactive Weather Map New forecast layout! Learn more

10-Day Weather Forecast

Advertisements
Track Severe Weather on mobile